sensor_id;sensor_type;location;lat;lon;timestamp;pressure;altitude;pressure_sealevel;temperature;humidity
29733;BME280;16643;43.158;25.302;2022-08-07T00:01:21;97670.03;;;25.22;60.67
29733;BME280;16643;43.158;25.302;2022-08-07T00:03:47;97679.19;;;25.10;60.63
29733;BME280;16643;43.158;25.302;2022-08-07T00:06:13;97676.66;;;25.09;61.24
29733;BME280;16643;43.158;25.302;2022-08-07T00:08:39;97673.63;;;25.04;61.55
29733;BME280;16643;43.158;25.302;2022-08-07T00:11:05;97676.34;;;24.75;61.42
29733;BME280;16643;43.158;25.302;2022-08-07T00:13:32;97681.91;;;24.91;61.95
29733;BME280;16643;43.158;25.302;2022-08-07T00:15:58;97682.88;;;24.90;61.80
29733;BME280;16643;43.158;25.302;2022-08-07T00:18:26;97674.75;;;25.01;62.01
29733;BME280;16643;43.158;25.302;2022-08-07T00:20:57;97680.91;;;25.02;61.74
29733;BME280;16643;43.158;25.302;2022-08-07T00:23:24;97671.41;;;24.99;62.44
29733;BME280;16643;43.158;25.302;2022-08-07T00:25:50;97668.34;;;24.84;62.92
29733;BME280;16643;43.158;25.302;2022-08-07T00:28:16;97667.97;;;24.79;61.80
29733;BME280;16643;43.158;25.302;2022-08-07T00:30:41;97670.72;;;24.87;62.34
29733;BME280;16643;43.158;25.302;2022-08-07T00:33:07;97671.97;;;24.83;63.09
29733;BME280;16643;43.158;25.302;2022-08-07T00:35:33;97668.09;;;24.78;63.03
29733;BME280;16643;43.158;25.302;2022-08-07T00:37:58;97666.66;;;24.83;63.25
29733;BME280;16643;43.158;25.302;2022-08-07T00:40:25;97673.84;;;24.83;63.71
29733;BME280;16643;43.158;25.302;2022-08-07T00:42:51;97669.19;;;24.85;63.91
29733;BME280;16643;43.158;25.302;2022-08-07T00:45:16;97668.53;;;24.73;64.25
29733;BME280;16643;43.158;25.302;2022-08-07T00:47:42;97673.19;;;24.71;64.02
29733;BME280;16643;43.158;25.302;2022-08-07T00:50:08;97659.03;;;24.71;64.29
29733;BME280;16643;43.158;25.302;2022-08-07T00:52:34;97672.56;;;24.77;64.51
29733;BME280;16643;43.158;25.302;2022-08-07T00:54:59;97671.91;;;24.66;63.49
29733;BME280;16643;43.158;25.302;2022-08-07T00:57:25;97663.81;;;24.67;63.75
29733;BME280;16643;43.158;25.302;2022-08-07T00:59:51;97677.06;;;24.77;64.35
29733;BME280;16643;43.158;25.302;2022-08-07T01:02:17;97676.63;;;24.81;64.45
29733;BME280;16643;43.158;25.302;2022-08-07T01:04:43;97670.03;;;24.85;64.28
29733;BME280;16643;43.158;25.302;2022-08-07T01:07:11;97673.94;;;24.91;63.86
29733;BME280;16643;43.158;25.302;2022-08-07T01:09:37;97672.00;;;24.93;63.80
29733;BME280;16643;43.158;25.302;2022-08-07T01:12:03;97671.41;;;24.99;63.11
29733;BME280;16643;43.158;25.302;2022-08-07T01:14:30;97675.31;;;25.05;62.76
29733;BME280;16643;43.158;25.302;2022-08-07T01:16:56;97687.97;;;24.93;62.23
29733;BME280;16643;43.158;25.302;2022-08-07T01:19:23;97662.09;;;24.76;62.68
29733;BME280;16643;43.158;25.302;2022-08-07T01:21:50;97680.81;;;24.93;61.89
29733;BME280;16643;43.158;25.302;2022-08-07T01:24:17;97683.84;;;24.99;61.71
29733;BME280;16643;43.158;25.302;2022-08-07T01:26:43;97667.91;;;24.99;60.98
29733;BME280;16643;43.158;25.302;2022-08-07T01:29:09;97690.09;;;25.17;60.79
29733;BME280;16643;43.158;25.302;2022-08-07T01:31:36;97689.31;;;24.97;61.14
29733;BME280;16643;43.158;25.302;2022-08-07T01:34:02;97685.41;;;24.91;61.50
29733;BME280;16643;43.158;25.302;2022-08-07T01:36:29;97690.31;;;24.86;61.42
29733;BME280;16643;43.158;25.302;2022-08-07T01:38:55;97682.78;;;24.82;61.18
29733;BME280;16643;43.158;25.302;2022-08-07T01:41:22;97684.31;;;24.94;61.38
29733;BME280;16643;43.158;25.302;2022-08-07T01:43:49;97680.78;;;25.03;60.96
29733;BME280;16643;43.158;25.302;2022-08-07T01:46:16;97685.25;;;25.03;61.01
29733;BME280;16643;43.158;25.302;2022-08-07T01:48:43;97683.94;;;25.07;60.83
29733;BME280;16643;43.158;25.302;2022-08-07T01:51:12;97673.78;;;25.02;60.96
29733;BME280;16643;43.158;25.302;2022-08-07T01:53:41;97686.94;;;25.04;60.88
29733;BME280;16643;43.158;25.302;2022-08-07T01:56:14;97687.22;;;25.01;61.32
29733;BME280;16643;43.158;25.302;2022-08-07T01:58:43;97697.31;;;24.87;61.65
29733;BME280;16643;43.158;25.302;2022-08-07T02:01:14;97697.88;;;24.91;61.87
29733;BME280;16643;43.158;25.302;2022-08-07T02:03:48;97688.34;;;24.88;61.58
29733;BME280;16643;43.158;25.302;2022-08-07T02:06:16;97693.13;;;24.85;61.81
29733;BME280;16643;43.158;25.302;2022-08-07T02:08:44;97693.00;;;24.77;62.19
29733;BME280;16643;43.158;25.302;2022-08-07T02:11:12;97692.78;;;24.70;62.32
29733;BME280;16643;43.158;25.302;2022-08-07T02:13:38;97692.91;;;24.69;62.51
29733;BME280;16643;43.158;25.302;2022-08-07T02:16:07;97699.06;;;24.69;62.50
29733;BME280;16643;43.158;25.302;2022-08-07T02:18:33;97703.41;;;24.60;62.65
29733;BME280;16643;43.158;25.302;2022-08-07T02:21:03;97696.69;;;24.66;62.32
29733;BME280;16643;43.158;25.302;2022-08-07T02:23:32;97701.63;;;24.51;62.90
29733;BME280;16643;43.158;25.302;2022-08-07T02:26:00;97709.56;;;24.61;62.60
29733;BME280;16643;43.158;25.302;2022-08-07T02:28:28;97705.50;;;24.67;62.12
29733;BME280;16643;43.158;25.302;2022-08-07T02:30:56;97714.59;;;24.64;61.89
29733;BME280;16643;43.158;25.302;2022-08-07T02:33:24;97682.03;;;24.52;62.11
29733;BME280;16643;43.158;25.302;2022-08-07T02:35:51;97711.13;;;24.54;61.95
29733;BME280;16643;43.158;25.302;2022-08-07T02:38:20;97705.97;;;24.43;62.22
29733;BME280;16643;43.158;25.302;2022-08-07T02:40:47;97709.06;;;24.48;62.50
29733;BME280;16643;43.158;25.302;2022-08-07T02:43:14;97708.59;;;24.52;61.92
29733;BME280;16643;43.158;25.302;2022-08-07T02:45:41;97704.59;;;24.48;62.03
29733;BME280;16643;43.158;25.302;2022-08-07T02:48:08;97718.56;;;24.60;61.98
29733;BME280;16643;43.158;25.302;2022-08-07T02:50:36;97715.75;;;24.52;61.99
29733;BME280;16643;43.158;25.302;2022-08-07T02:53:11;97721.75;;;24.54;61.95
29733;BME280;16643;43.158;25.302;2022-08-07T02:55:44;97724.69;;;24.60;61.90
29733;BME280;16643;43.158;25.302;2022-08-07T02:58:16;97723.41;;;24.65;62.08
29733;BME280;16643;43.158;25.302;2022-08-07T03:00:44;97717.72;;;24.59;61.71
29733;BME280;16643;43.158;25.302;2022-08-07T03:03:15;97719.22;;;24.62;61.72
29733;BME280;16643;43.158;25.302;2022-08-07T03:05:42;97725.50;;;24.61;61.84
29733;BME280;16643;43.158;25.302;2022-08-07T03:08:09;97720.50;;;24.58;62.07
29733;BME280;16643;43.158;25.302;2022-08-07T03:10:36;97724.16;;;24.57;62.14
29733;BME280;16643;43.158;25.302;2022-08-07T03:13:03;97718.13;;;24.55;62.19
29733;BME280;16643;43.158;25.302;2022-08-07T03:15:30;97722.47;;;24.56;61.97
29733;BME280;16643;43.158;25.302;2022-08-07T03:17:56;97698.69;;;24.45;62.09
29733;BME280;16643;43.158;25.302;2022-08-07T03:20:22;97724.31;;;24.46;62.05
29733;BME280;16643;43.158;25.302;2022-08-07T03:22:49;97716.47;;;24.44;62.48
29733;BME280;16643;43.158;25.302;2022-08-07T03:25:15;97719.41;;;24.41;62.72
29733;BME280;16643;43.158;25.302;2022-08-07T03:27:43;97716.63;;;24.33;62.81
29733;BME280;16643;43.158;25.302;2022-08-07T03:30:10;97717.72;;;24.40;62.71
29733;BME280;16643;43.158;25.302;2022-08-07T03:32:41;97718.00;;;24.47;62.90
29733;BME280;16643;43.158;25.302;2022-08-07T03:35:12;97716.34;;;24.36;62.77
29733;BME280;16643;43.158;25.302;2022-08-07T03:37:40;97707.53;;;24.36;62.93
29733;BME280;16643;43.158;25.302;2022-08-07T03:40:08;97715.78;;;24.33;63.00
29733;BME280;16643;43.158;25.302;2022-08-07T03:42:34;97718.44;;;24.42;63.04
29733;BME280;16643;43.158;25.302;2022-08-07T03:45:01;97719.41;;;24.41;62.85
29733;BME280;16643;43.158;25.302;2022-08-07T03:47:31;97712.13;;;24.43;62.87
29733;BME280;16643;43.158;25.302;2022-08-07T03:49:57;97723.59;;;24.53;63.15
29733;BME280;16643;43.158;25.302;2022-08-07T03:52:26;97727.50;;;24.59;62.75
29733;BME280;16643;43.158;25.302;2022-08-07T03:54:54;97724.41;;;24.64;62.46
29733;BME280;16643;43.158;25.302;2022-08-07T03:57:21;97723.88;;;24.60;62.97
29733;BME280;16643;43.158;25.302;2022-08-07T03:59:48;97725.69;;;24.59;63.25
29733;BME280;16643;43.158;25.302;2022-08-07T04:02:14;97726.06;;;24.65;62.91
29733;BME280;16643;43.158;25.302;2022-08-07T04:04:43;97730.00;;;24.60;62.33
29733;BME280;16643;43.158;25.302;2022-08-07T04:07:09;97736.56;;;24.66;62.75
29733;BME280;16643;43.158;25.302;2022-08-07T04:09:35;97738.41;;;24.66;62.59
29733;BME280;16643;43.158;25.302;2022-08-07T04:12:01;97747.78;;;24.70;62.72
29733;BME280;16643;43.158;25.302;2022-08-07T04:14:27;97739.78;;;24.70;62.55
29733;BME280;16643;43.158;25.302;2022-08-07T04:16:53;97754.06;;;24.69;62.97
29733;BME280;16643;43.158;25.302;2022-08-07T04:19:19;97750.44;;;24.70;62.67
29733;BME280;16643;43.158;25.302;2022-08-07T04:21:45;97751.28;;;24.70;62.85
29733;BME280;16643;43.158;25.302;2022-08-07T04:24:11;97749.59;;;24.69;63.05
29733;BME280;16643;43.158;25.302;2022-08-07T04:26:38;97745.25;;;24.68;62.83
29733;BME280;16643;43.158;25.302;2022-08-07T04:29:05;97750.16;;;24.53;63.51
29733;BME280;16643;43.158;25.302;2022-08-07T04:31:31;97751.13;;;24.62;63.74
29733;BME280;16643;43.158;25.302;2022-08-07T04:33:58;97748.47;;;24.62;63.47
29733;BME280;16643;43.158;25.302;2022-08-07T04:36:24;97764.00;;;24.67;63.42
29733;BME280;16643;43.158;25.302;2022-08-07T04:38:50;97756.88;;;24.67;63.43
29733;BME280;16643;43.158;25.302;2022-08-07T04:41:15;97770.00;;;24.78;63.48
29733;BME280;16643;43.158;25.302;2022-08-07T04:43:42;97763.84;;;24.78;63.21
29733;BME280;16643;43.158;25.302;2022-08-07T04:46:22;97764.38;;;24.91;62.84
29733;BME280;16643;43.158;25.302;2022-08-07T04:49:09;97770.69;;;24.80;62.67
29733;BME280;16643;43.158;25.302;2022-08-07T04:59:56;97782.72;;;24.84;63.75
29733;BME280;16643;43.158;25.302;2022-08-07T05:02:28;97789.03;;;24.93;63.79
29733;BME280;16643;43.158;25.302;2022-08-07T05:07:25;97793.31;;;25.13;63.40
29733;BME280;16643;43.158;25.302;2022-08-07T05:10:05;97793.09;;;25.34;62.24
29733;BME280;16643;43.158;25.302;2022-08-07T05:12:46;97796.50;;;25.54;61.21
29733;BME280;16643;43.158;25.302;2022-08-07T05:15:19;97797.25;;;25.74;60.73
29733;BME280;16643;43.158;25.302;2022-08-07T05:17:57;97805.22;;;25.83;59.42
29733;BME280;16643;43.158;25.302;2022-08-07T05:20:31;97800.69;;;25.66;59.54
29733;BME280;16643;43.158;25.302;2022-08-07T05:23:02;97812.91;;;25.59;59.36
29733;BME280;16643;43.158;25.302;2022-08-07T05:25:31;97810.63;;;25.64;59.01
29733;BME280;16643;43.158;25.302;2022-08-07T05:27:58;97817.25;;;25.87;59.18
29733;BME280;16643;43.158;25.302;2022-08-07T05:30:25;97816.97;;;25.90;58.23
29733;BME280;16643;43.158;25.302;2022-08-07T05:32:54;97817.66;;;26.10;58.63
29733;BME280;16643;43.158;25.302;2022-08-07T05:35:22;97827.88;;;26.15;57.36
29733;BME280;16643;43.158;25.302;2022-08-07T05:37:48;97828.44;;;26.18;57.59
29733;BME280;16643;43.158;25.302;2022-08-07T05:40:15;97830.28;;;26.35;57.14
29733;BME280;16643;43.158;25.302;2022-08-07T05:42:43;97830.13;;;26.55;56.76
29733;BME280;16643;43.158;25.302;2022-08-07T05:45:10;97830.19;;;26.81;56.83
29733;BME280;16643;43.158;25.302;2022-08-07T05:47:36;97834.50;;;26.99;55.99
29733;BME280;16643;43.158;25.302;2022-08-07T05:50:02;97832.75;;;27.08;55.08
29733;BME280;16643;43.158;25.302;2022-08-07T05:52:29;97833.84;;;27.23;55.55
29733;BME280;16643;43.158;25.302;2022-08-07T05:54:54;97840.00;;;27.50;54.64
29733;BME280;16643;43.158;25.302;2022-08-07T05:57:20;97849.91;;;27.57;53.59
29733;BME280;16643;43.158;25.302;2022-08-07T05:59:48;97840.44;;;27.63;52.82
29733;BME280;16643;43.158;25.302;2022-08-07T06:02:15;97855.34;;;27.73;52.62
29733;BME280;16643;43.158;25.302;2022-08-07T06:04:50;97853.13;;;28.03;53.55
29733;BME280;16643;43.158;25.302;2022-08-07T06:07:16;97844.63;;;28.15;52.27
29733;BME280;16643;43.158;25.302;2022-08-07T06:09:43;97861.94;;;28.29;51.95
29733;BME280;16643;43.158;25.302;2022-08-07T06:12:09;97856.94;;;28.42;52.52
29733;BME280;16643;43.158;25.302;2022-08-07T06:14:35;97861.63;;;28.57;50.79
29733;BME280;16643;43.158;25.302;2022-08-07T06:17:02;97845.56;;;28.57;51.38
29733;BME280;16643;43.158;25.302;2022-08-07T06:19:28;97849.09;;;28.73;50.27
29733;BME280;16643;43.158;25.302;2022-08-07T06:21:55;97853.13;;;28.77;50.13
29733;BME280;16643;43.158;25.302;2022-08-07T06:24:22;97863.50;;;28.80;50.04
29733;BME280;16643;43.158;25.302;2022-08-07T06:26:47;97844.78;;;29.05;49.59
29733;BME280;16643;43.158;25.302;2022-08-07T06:29:13;97846.59;;;29.12;50.53
29733;BME280;16643;43.158;25.302;2022-08-07T06:31:38;97848.25;;;29.13;51.70
29733;BME280;16643;43.158;25.302;2022-08-07T06:34:04;97855.59;;;29.36;50.14
29733;BME280;16643;43.158;25.302;2022-08-07T06:36:30;97856.97;;;29.40;49.74
29733;BME280;16643;43.158;25.302;2022-08-07T06:38:56;97853.81;;;29.20;50.46
29733;BME280;16643;43.158;25.302;2022-08-07T06:41:25;97860.47;;;29.56;49.83
29733;BME280;16643;43.158;25.302;2022-08-07T06:43:53;97838.06;;;29.17;50.30
29733;BME280;16643;43.158;25.302;2022-08-07T06:46:20;97854.56;;;29.61;50.50
29733;BME280;16643;43.158;25.302;2022-08-07T06:48:47;97862.78;;;29.68;49.27
29733;BME280;16643;43.158;25.302;2022-08-07T06:51:16;97868.25;;;29.74;49.29
29733;BME280;16643;43.158;25.302;2022-08-07T06:53:42;97859.50;;;29.96;49.96
29733;BME280;16643;43.158;25.302;2022-08-07T06:56:11;97852.06;;;30.07;48.57
29733;BME280;16643;43.158;25.302;2022-08-07T06:58:37;97869.09;;;30.22;48.95
29733;BME280;16643;43.158;25.302;2022-08-07T07:01:05;97872.34;;;30.40;48.57
29733;BME280;16643;43.158;25.302;2022-08-07T07:03:32;97864.72;;;30.52;47.32
29733;BME280;16643;43.158;25.302;2022-08-07T07:05:58;97868.09;;;30.77;46.63
29733;BME280;16643;43.158;25.302;2022-08-07T07:08:28;97872.09;;;30.81;46.41
29733;BME280;16643;43.158;25.302;2022-08-07T07:10:54;97873.38;;;30.85;46.35
29733;BME280;16643;43.158;25.302;2022-08-07T07:13:43;97868.78;;;30.93;46.67
29733;BME280;16643;43.158;25.302;2022-08-07T07:16:13;97873.38;;;31.08;46.50
29733;BME280;16643;43.158;25.302;2022-08-07T07:18:43;97874.09;;;31.24;44.84
29733;BME280;16643;43.158;25.302;2022-08-07T07:21:21;97882.63;;;31.28;44.48
29733;BME280;16643;43.158;25.302;2022-08-07T07:23:48;97879.56;;;31.08;45.38
29733;BME280;16643;43.158;25.302;2022-08-07T07:26:17;97882.25;;;31.31;45.35
29733;BME280;16643;43.158;25.302;2022-08-07T07:31:22;97874.25;;;31.60;44.74
29733;BME280;16643;43.158;25.302;2022-08-07T07:33:54;97881.88;;;31.71;43.86
29733;BME280;16643;43.158;25.302;2022-08-07T07:36:23;97877.88;;;31.82;43.68
29733;BME280;16643;43.158;25.302;2022-08-07T07:38:50;97872.59;;;31.89;44.41
29733;BME280;16643;43.158;25.302;2022-08-07T07:41:17;97879.78;;;31.44;41.99
29733;BME280;16643;43.158;25.302;2022-08-07T07:43:46;97882.41;;;30.92;42.92
29733;BME280;16643;43.158;25.302;2022-08-07T07:46:13;97888.19;;;31.26;43.14
29733;BME280;16643;43.158;25.302;2022-08-07T07:48:40;97877.75;;;31.46;43.04
29733;BME280;16643;43.158;25.302;2022-08-07T07:51:07;97870.50;;;31.61;42.59
29733;BME280;16643;43.158;25.302;2022-08-07T07:53:37;97881.97;;;31.78;43.95
29733;BME280;16643;43.158;25.302;2022-08-07T07:56:05;97874.81;;;31.85;42.22
29733;BME280;16643;43.158;25.302;2022-08-07T07:58:34;97873.59;;;31.73;41.25
29733;BME280;16643;43.158;25.302;2022-08-07T08:01:02;97867.19;;;31.74;40.88
29733;BME280;16643;43.158;25.302;2022-08-07T08:03:30;97870.53;;;31.76;39.93
29733;BME280;16643;43.158;25.302;2022-08-07T08:05:56;97874.03;;;32.06;42.07
29733;BME280;16643;43.158;25.302;2022-08-07T08:08:24;97875.09;;;31.90;40.35
29733;BME280;16643;43.158;25.302;2022-08-07T08:10:51;97884.34;;;31.73;40.50
29733;BME280;16643;43.158;25.302;2022-08-07T08:13:18;97875.31;;;31.51;40.97
29733;BME280;16643;43.158;25.302;2022-08-07T08:15:47;97882.00;;;31.55;40.09
29733;BME280;16643;43.158;25.302;2022-08-07T08:18:14;97867.25;;;31.51;40.94
29733;BME280;16643;43.158;25.302;2022-08-07T08:20:40;97881.75;;;31.13;41.86
29733;BME280;16643;43.158;25.302;2022-08-07T08:23:09;97879.06;;;31.13;42.81
29733;BME280;16643;43.158;25.302;2022-08-07T08:25:58;97878.19;;;31.50;41.24
29733;BME280;16643;43.158;25.302;2022-08-07T08:28:53;97889.13;;;31.33;41.28
29733;BME280;16643;43.158;25.302;2022-08-07T08:31:25;97875.69;;;31.33;41.51
29733;BME280;16643;43.158;25.302;2022-08-07T08:33:54;97872.34;;;31.31;40.99
29733;BME280;16643;43.158;25.302;2022-08-07T08:36:20;97876.16;;;31.37;41.21
29733;BME280;16643;43.158;25.302;2022-08-07T08:38:48;97867.44;;;31.50;42.04
29733;BME280;16643;43.158;25.302;2022-08-07T08:44:03;97877.03;;;31.67;40.21
29733;BME280;16643;43.158;25.302;2022-08-07T08:46:45;97874.13;;;31.54;39.98
29733;BME280;16643;43.158;25.302;2022-08-07T08:51:58;97862.13;;;32.30;41.23
29733;BME280;16643;43.158;25.302;2022-08-07T08:54:33;97865.34;;;32.76;39.88
29733;BME280;16643;43.158;25.302;2022-08-07T08:57:06;97859.91;;;32.91;37.17
29733;BME280;16643;43.158;25.302;2022-08-07T09:00:05;97865.03;;;32.86;37.86
29733;BME280;16643;43.158;25.302;2022-08-07T09:07:56;97864.56;;;33.03;36.83
29733;BME280;16643;43.158;25.302;2022-08-07T09:16:31;97858.91;;;32.56;39.08
29733;BME280;16643;43.158;25.302;2022-08-07T09:24:20;97859.97;;;31.74;39.33
29733;BME280;16643;43.158;25.302;2022-08-07T09:29:46;97856.69;;;31.50;40.85
29733;BME280;16643;43.158;25.302;2022-08-07T09:35:50;97847.22;;;31.24;40.94
29733;BME280;16643;43.158;25.302;2022-08-07T09:38:35;97857.50;;;31.21;41.58
29733;BME280;16643;43.158;25.302;2022-08-07T09:47:03;97844.16;;;31.13;39.71
29733;BME280;16643;43.158;25.302;2022-08-07T09:49:52;97834.53;;;30.95;41.01
29733;BME280;16643;43.158;25.302;2022-08-07T09:54:47;97848.09;;;30.79;41.20
29733;BME280;16643;43.158;25.302;2022-08-07T10:16:41;97820.16;;;32.71;38.36
29733;BME280;16643;43.158;25.302;2022-08-07T10:19:48;97811.78;;;32.88;37.03
29733;BME280;16643;43.158;25.302;2022-08-07T10:30:09;97803.03;;;32.07;38.43
29733;BME280;16643;43.158;25.302;2022-08-07T10:32:59;97819.41;;;32.05;38.10
29733;BME280;16643;43.158;25.302;2022-08-07T10:35:54;97811.97;;;32.07;38.65
29733;BME280;16643;43.158;25.302;2022-08-07T10:41:13;97819.78;;;32.02;39.05
29733;BME280;16643;43.158;25.302;2022-08-07T10:44:06;97820.94;;;31.79;38.56
29733;BME280;16643;43.158;25.302;2022-08-07T10:47:00;97808.03;;;31.89;39.70
29733;BME280;16643;43.158;25.302;2022-08-07T10:49:49;97807.69;;;32.49;38.62
29733;BME280;16643;43.158;25.302;2022-08-07T10:52:30;97823.56;;;32.65;37.62
29733;BME280;16643;43.158;25.302;2022-08-07T10:57:42;97803.56;;;32.96;38.24
29733;BME280;16643;43.158;25.302;2022-08-07T11:00:11;97789.16;;;33.38;37.95
29733;BME280;16643;43.158;25.302;2022-08-07T11:02:43;97790.63;;;33.40;37.12
29733;BME280;16643;43.158;25.302;2022-08-07T11:05:13;97792.97;;;33.50;35.53
29733;BME280;16643;43.158;25.302;2022-08-07T11:10:54;97785.75;;;33.64;35.78
29733;BME280;16643;43.158;25.302;2022-08-07T11:13:31;97791.94;;;33.99;34.54
29733;BME280;16643;43.158;25.302;2022-08-07T11:16:05;97790.31;;;34.04;34.31
29733;BME280;16643;43.158;25.302;2022-08-07T11:21:39;97789.81;;;34.35;34.05
29733;BME280;16643;43.158;25.302;2022-08-07T11:24:36;97774.81;;;34.19;34.19
29733;BME280;16643;43.158;25.302;2022-08-07T11:30:09;97776.09;;;34.30;34.22
29733;BME280;16643;43.158;25.302;2022-08-07T11:32:39;97781.00;;;34.07;34.28
29733;BME280;16643;43.158;25.302;2022-08-07T11:35:13;97763.66;;;33.75;34.31
29733;BME280;16643;43.158;25.302;2022-08-07T11:37:59;97768.94;;;34.09;33.66
29733;BME280;16643;43.158;25.302;2022-08-07T11:52:12;97760.03;;;32.99;32.98
29733;BME280;16643;43.158;25.302;2022-08-07T11:55:00;97761.19;;;32.83;34.35
29733;BME280;16643;43.158;25.302;2022-08-07T12:00:50;97763.47;;;32.86;35.07
29733;BME280;16643;43.158;25.302;2022-08-07T12:11:21;97764.72;;;32.84;35.24
29733;BME280;16643;43.158;25.302;2022-08-07T12:13:57;97762.78;;;32.56;35.95
29733;BME280;16643;43.158;25.302;2022-08-07T12:24:32;97757.25;;;32.64;35.47
29733;BME280;16643;43.158;25.302;2022-08-07T12:27:08;97760.94;;;32.57;36.58
29733;BME280;16643;43.158;25.302;2022-08-07T12:29:50;97757.44;;;32.63;36.94
29733;BME280;16643;43.158;25.302;2022-08-07T12:32:33;97761.38;;;32.81;35.78
29733;BME280;16643;43.158;25.302;2022-08-07T12:35:03;97745.34;;;33.01;36.71
29733;BME280;16643;43.158;25.302;2022-08-07T12:37:32;97744.78;;;33.40;35.34
29733;BME280;16643;43.158;25.302;2022-08-07T12:40:00;97741.53;;;33.51;35.35
29733;BME280;16643;43.158;25.302;2022-08-07T12:42:26;97736.59;;;33.68;35.39
29733;BME280;16643;43.158;25.302;2022-08-07T12:44:53;97737.44;;;33.69;34.65
29733;BME280;16643;43.158;25.302;2022-08-07T12:47:25;97736.75;;;33.53;35.90
29733;BME280;16643;43.158;25.302;2022-08-07T12:50:11;97733.41;;;33.93;35.74
29733;BME280;16643;43.158;25.302;2022-08-07T12:52:47;97737.69;;;33.74;34.37
29733;BME280;16643;43.158;25.302;2022-08-07T12:55:17;97728.75;;;33.73;35.56
29733;BME280;16643;43.158;25.302;2022-08-07T12:57:46;97731.34;;;34.01;33.92
29733;BME280;16643;43.158;25.302;2022-08-07T13:00:13;97738.84;;;34.12;34.59
29733;BME280;16643;43.158;25.302;2022-08-07T13:11:11;97704.25;;;34.75;31.76
29733;BME280;16643;43.158;25.302;2022-08-07T13:14:06;97719.16;;;35.04;31.75
29733;BME280;16643;43.158;25.302;2022-08-07T13:16:43;97754.09;;;34.66;32.44
29733;BME280;16643;43.158;25.302;2022-08-07T13:21:49;97775.84;;;31.51;50.21
29733;BME280;16643;43.158;25.302;2022-08-07T13:24:38;97759.84;;;31.14;54.33
29733;BME280;16643;43.158;25.302;2022-08-07T13:27:12;97737.81;;;30.95;60.10
29733;BME280;16643;43.158;25.302;2022-08-07T13:29:57;97725.09;;;30.75;57.44
29733;BME280;16643;43.158;25.302;2022-08-07T13:32:40;97720.66;;;30.67;57.06
29733;BME280;16643;43.158;25.302;2022-08-07T13:38:12;97702.50;;;30.54;62.55
29733;BME280;16643;43.158;25.302;2022-08-07T13:40:47;97703.16;;;30.48;60.71
29733;BME280;16643;43.158;25.302;2022-08-07T13:43:18;97705.00;;;30.56;64.74
29733;BME280;16643;43.158;25.302;2022-08-07T13:45:45;97708.09;;;30.45;60.91
29733;BME280;16643;43.158;25.302;2022-08-07T13:48:13;97706.69;;;30.11;66.13
29733;BME280;16643;43.158;25.302;2022-08-07T13:50:41;97692.63;;;29.55;75.15
29733;BME280;16643;43.158;25.302;2022-08-07T13:53:08;97686.31;;;29.40;75.02
29733;BME280;16643;43.158;25.302;2022-08-07T13:55:34;97679.34;;;29.23;76.09
29733;BME280;16643;43.158;25.302;2022-08-07T13:58:07;97692.91;;;29.21;76.25
29733;BME280;16643;43.158;25.302;2022-08-07T14:00:52;97703.25;;;29.24;78.54
29733;BME280;16643;43.158;25.302;2022-08-07T14:03:20;97698.81;;;29.09;82.10
29733;BME280;16643;43.158;25.302;2022-08-07T14:05:49;97693.03;;;28.89;82.03
29733;BME280;16643;43.158;25.302;2022-08-07T14:08:19;97679.97;;;28.86;82.31
29733;BME280;16643;43.158;25.302;2022-08-07T14:10:47;97690.94;;;29.07;83.17
29733;BME280;16643;43.158;25.302;2022-08-07T14:13:15;97692.53;;;29.24;83.39
29733;BME280;16643;43.158;25.302;2022-08-07T14:15:49;97689.66;;;29.42;80.44
29733;BME280;16643;43.158;25.302;2022-08-07T14:18:26;97678.91;;;29.50;78.32
29733;BME280;16643;43.158;25.302;2022-08-07T14:21:01;97675.47;;;29.65;79.10
29733;BME280;16643;43.158;25.302;2022-08-07T14:23:29;97675.19;;;30.05;78.34
29733;BME280;16643;43.158;25.302;2022-08-07T14:26:04;97665.94;;;30.30;73.89
29733;BME280;16643;43.158;25.302;2022-08-07T14:28:33;97666.84;;;30.60;72.08
29733;BME280;16643;43.158;25.302;2022-08-07T14:31:01;97667.97;;;30.95;67.70
29733;BME280;16643;43.158;25.302;2022-08-07T14:33:33;97666.22;;;31.17;67.22
29733;BME280;16643;43.158;25.302;2022-08-07T14:36:02;97679.94;;;31.37;63.74
29733;BME280;16643;43.158;25.302;2022-08-07T14:38:29;97677.50;;;31.42;64.23
29733;BME280;16643;43.158;25.302;2022-08-07T14:41:05;97685.41;;;31.29;64.49
29733;BME280;16643;43.158;25.302;2022-08-07T14:43:41;97695.03;;;30.94;63.13
29733;BME280;16643;43.158;25.302;2022-08-07T14:46:09;97679.81;;;30.57;52.90
29733;BME280;16643;43.158;25.302;2022-08-07T14:48:37;97679.59;;;30.44;51.54
29733;BME280;16643;43.158;25.302;2022-08-07T14:51:11;97688.56;;;30.36;54.40
29733;BME280;16643;43.158;25.302;2022-08-07T14:53:42;97697.22;;;30.38;58.53
29733;BME280;16643;43.158;25.302;2022-08-07T14:56:09;97705.50;;;29.83;59.11
29733;BME280;16643;43.158;25.302;2022-08-07T14:58:42;97708.44;;;29.26;61.36
29733;BME280;16643;43.158;25.302;2022-08-07T15:01:09;97711.53;;;29.07;62.55
29733;BME280;16643;43.158;25.302;2022-08-07T15:03:38;97708.34;;;29.11;61.54
29733;BME280;16643;43.158;25.302;2022-08-07T15:06:05;97712.81;;;29.27;59.88
29733;BME280;16643;43.158;25.302;2022-08-07T15:08:34;97716.28;;;29.36;60.74
29733;BME280;16643;43.158;25.302;2022-08-07T15:11:13;97725.84;;;29.30;62.22
29733;BME280;16643;43.158;25.302;2022-08-07T15:16:16;97715.34;;;29.12;60.65
29733;BME280;16643;43.158;25.302;2022-08-07T15:18:45;97722.22;;;29.15;61.47
29733;BME280;16643;43.158;25.302;2022-08-07T15:21:15;97722.22;;;29.23;59.86
29733;BME280;16643;43.158;25.302;2022-08-07T15:23:46;97734.16;;;28.96;60.75
29733;BME280;16643;43.158;25.302;2022-08-07T15:26:13;97728.84;;;28.80;58.69